Ozark Regional Airport
KBPK : now visible

Airfield :











YOU CAN JOIN US ON...

 
LOGIN :

Register | Disclaimer

   EN    FR    IT 

 









Legend :    VFR   Marginal VFR   IFR   Intensive IFR   Very Intensive IFR
Visi :
Ceiling :
>= 8 km
>= 3000ft
5 to 8 km
1000 to 3000 ft
1500m to 5 km
500 to 1000 ft
800 to 1500m
200 to 500 ft
< 800m
< 200 ft
Symbols :   Thunderstorms  Fog  Heavy snow  Heavy precipitations  Wind > 20 kt






- Airport Elevation : 928 ft


KBPK - Ozark Regional

CURRENT METAR :
  • 042153Z AUTO VRB03KT 10SM SCT050 SCT060 26/13 A3006 RMK AO2 SLP171 T02610133

EXPIRED METARs :
  • 042053Z AUTO 00000KT 10SM CLR 26/13 A3006 RMK AO2 SLP172 T02560128 58010
  • 041953Z AUTO 07006KT 10SM FEW050 BKN065 24/12 A3008 RMK AO2 SLP178 T02440122

TAF KBPK
Valid from the 04 at 18:00 until the 05 at 18:00 UTC


041738Z 0418/0518 01006KT P6SM SCT050
FM050100 VRB03KT P6SM SCT250
FM051300 13005KT P6SM SCT030 BKN250
KZME FIR / North America



MET'MAP, your aeronautical weather chart ! - Copyright ORBIFLY December 2007 - Disclaimer

ORBIFLY MET'MAP TEAM :

Programming & Development : Alexandra Zaïnal
Concept & original design : Baudouin d'Aumeries
Assistance for programming : Marc-Olivier Méhu
Technical & hardware support : Manuel Goepfert

Contact : metmap@orbifly.com




SOURCES & CREDITS :

   NOAA       Earth
Advisory